Anwaar Alnaser — 5AXD — position and weather

sailwx.info

Track history (hours):
 
Tides and Currents Weather Stations Pressure Air Temp Water Temp Dewpoint Dewpoint Depression Visibility Wind Speed Wind Dir Waves Ship Positions

Anwaar Alnaser

Last reported at 2014-Sep-15 13:03 UTC. Time now 2014-Sep-19 01:48 UTC.
Position N 32°49' E 012°43'.

Length 165 m; draft 7.2 m.

Type: Ship (hazmat cat D). MMSI: 642122018.

Date/timePositionNaut miles runAvg speedWind from/ knotsBaromVisibWave heightAir tempDewpointWater temp
2014-Sep-15 13:03N 32°49' E 012°43'2 3.7
2014-Sep-15 12:33N 32°49' E 012°41'0 0.0
2014-Sep-15 11:33N 32°49' E 012°41'3 2.9
2014-Sep-15 10:29N 32°51' E 012°38'2412.3
2014-Sep-15 08:33N 33°07' E 012°18'5313.3
2014-Sep-15 04:33N 33°43' E 011°30'3812.6
2014-Sep-15 01:33N 34°04' E 010°52'101 3.0
2014-Sep-13 15:33N 33°14' E 012°38'34 1.4
2014-Sep-12 14:33N 32°54' E 013°12'0 0.0
2014-Sep-12 13:33N 32°54' E 013°12'0 0.0
2014-Sep-11 19:23N 32°54' E 013°12'0 0.0
2014-Sep-10 23:14N 32°54' E 013°12'0 0.0
2014-Sep-10 22:32N 32°54' E 013°12'0 0.0
2014-Sep-10 20:14N 32°54' E 013°12'0 0.0
2014-Sep-10 18:29N 32°54' E 013°12'0 0.0
2014-Sep-10 17:23N 32°54' E 013°12'0 0.0
2014-Sep-10 16:32N 32°54' E 013°12'0 0.0
2014-Sep-10 15:32N 32°54' E 013°12'0 0.0
2014-Sep-10 14:28N 32°54' E 013°12'0 0.0
2014-Sep-10 13:31N 32°54' E 013°12'0 0.0
2014-Sep-10 11:28N 32°54' E 013°12'0 0.0
2014-Sep-10 10:19N 32°54' E 013°12'0 0.0
2014-Sep-10 08:25N 32°54' E 013°12'0 0.0
2014-Sep-10 06:31N 32°54' E 013°12'0 0.0
2014-Sep-08 13:30N 32°54' E 013°12'0 0.0
2014-Sep-08 11:30N 32°54' E 013°12'0 0.0
2014-Sep-08 10:33N 32°54' E 013°12'0 0.0
2014-Sep-08 09:33N 32°54' E 013°12'0 0.0
2014-Sep-06 13:14N 32°54' E 013°12'0 0.0
2014-Sep-06 12:20N 32°54' E 013°12'  
Track history (hours):
 
Tides and Currents Weather Stations Pressure Air Temp Water Temp Dewpoint Dewpoint Depression Visibility Wind Speed Wind Dir Waves Ship Positions

Anwaar Alnaser

Last reported at 2014-Sep-15 13:03 UTC. Time now 2014-Sep-19 01:48 UTC.
Position N 32°49' E 012°43'.

Length 165 m; draft 7.2 m.

Type: Ship (hazmat cat D). MMSI: 642122018.

Date/timePositionNaut miles runAvg speedWind from/ knotsBaromVisibWave heightAir tempDewpointWater temp
2014-Sep-15 13:03N 32°49' E 012°43'2 3.7
2014-Sep-15 12:33N 32°49' E 012°41'0 0.0
2014-Sep-15 11:33N 32°49' E 012°41'3 2.9
2014-Sep-15 10:29N 32°51' E 012°38'2412.3
2014-Sep-15 08:33N 33°07' E 012°18'5313.3
2014-Sep-15 04:33N 33°43' E 011°30'3812.6
2014-Sep-15 01:33N 34°04' E 010°52'101 3.0
2014-Sep-13 15:33N 33°14' E 012°38'34 1.4
2014-Sep-12 14:33N 32°54' E 013°12'0 0.0
2014-Sep-12 13:33N 32°54' E 013°12'0 0.0
2014-Sep-11 19:23N 32°54' E 013°12'0 0.0
2014-Sep-10 23:14N 32°54' E 013°12'0 0.0
2014-Sep-10 22:32N 32°54' E 013°12'0 0.0
2014-Sep-10 20:14N 32°54' E 013°12'0 0.0
2014-Sep-10 18:29N 32°54' E 013°12'0 0.0
2014-Sep-10 17:23N 32°54' E 013°12'0 0.0
2014-Sep-10 16:32N 32°54' E 013°12'0 0.0
2014-Sep-10 15:32N 32°54' E 013°12'0 0.0
2014-Sep-10 14:28N 32°54' E 013°12'0 0.0
2014-Sep-10 13:31N 32°54' E 013°12'0 0.0
2014-Sep-10 11:28N 32°54' E 013°12'0 0.0
2014-Sep-10 10:19N 32°54' E 013°12'0 0.0
2014-Sep-10 08:25N 32°54' E 013°12'0 0.0
2014-Sep-10 06:31N 32°54' E 013°12'0 0.0
2014-Sep-08 13:30N 32°54' E 013°12'0 0.0
2014-Sep-08 11:30N 32°54' E 013°12'0 0.0
2014-Sep-08 10:33N 32°54' E 013°12'0 0.0
2014-Sep-08 09:33N 32°54' E 013°12'0 0.0
2014-Sep-06 13:14N 32°54' E 013°12'0 0.0
2014-Sep-06 12:20N 32°54' E 013°12'  

Dump ship's entire track history